createdAt,value
2018-12-25T00:00:47.017Z,20.00
2018-12-25T00:03:17.939Z,23.83
2018-12-25T00:05:48.904Z,19.03
2018-12-25T00:08:19.821Z,23.40
2018-12-25T00:10:50.782Z,21.90
2018-12-25T00:13:21.711Z,25.00
2018-12-25T00:15:52.651Z,24.67
2018-12-25T00:18:23.578Z,24.03
2018-12-25T00:20:54.529Z,25.07
2018-12-25T00:23:25.535Z,27.13
2018-12-25T00:25:56.493Z,21.67
2018-12-25T00:28:27.423Z,24.63
2018-12-25T00:30:58.375Z,27.00
2018-12-25T00:33:29.299Z,25.23
2018-12-25T00:36:00.338Z,24.97
2018-12-25T00:38:31.291Z,26.27
2018-12-25T00:41:02.252Z,25.70
2018-12-25T00:43:33.215Z,28.40
2018-12-25T00:46:04.275Z,27.37
2018-12-25T00:48:35.242Z,26.00
2018-12-25T00:51:06.268Z,27.63
2018-12-25T00:53:37.203Z,25.23
2018-12-25T00:56:08.149Z,24.30
2018-12-25T00:58:39.093Z,22.87
2018-12-25T01:01:10.035Z,27.80
2018-12-25T01:03:41.023Z,25.17
2018-12-25T01:06:11.956Z,23.63
2018-12-25T01:08:42.979Z,22.67
2018-12-25T01:11:13.991Z,26.70
2018-12-25T01:13:44.898Z,24.27
2018-12-25T01:16:15.848Z,26.00
2018-12-25T01:18:46.816Z,21.13
2018-12-25T01:21:17.793Z,21.73
2018-12-25T01:23:49.072Z,27.17
2018-12-25T01:26:20.010Z,23.47
2018-12-25T01:28:51.035Z,24.27
2018-12-25T01:31:21.954Z,21.13
2018-12-25T01:33:52.863Z,24.33
2018-12-25T01:36:23.776Z,26.13
2018-12-25T01:38:54.704Z,23.20
2018-12-25T01:41:25.643Z,23.13
2018-12-25T01:43:56.605Z,25.67
2018-12-25T01:46:27.523Z,23.50
2018-12-25T01:48:58.524Z,25.33
2018-12-25T01:51:29.513Z,26.10
2018-12-25T01:54:00.526Z,26.63
2018-12-25T01:56:31.558Z,26.93
2018-12-25T01:59:02.535Z,26.13
2018-12-25T02:01:33.472Z,26.43
2018-12-25T02:04:04.448Z,27.77
2018-12-25T02:06:35.358Z,26.17
2018-12-25T02:09:07.645Z,27.83
2018-12-25T02:11:38.641Z,24.33
2018-12-25T02:14:09.614Z,26.90
2018-12-25T02:16:40.540Z,26.70
2018-12-25T02:19:11.507Z,31.00
2018-12-25T02:21:42.593Z,27.03
2018-12-25T02:24:13.553Z,26.30
2018-12-25T02:26:44.495Z,24.47
2018-12-25T02:29:15.587Z,28.00
2018-12-25T02:31:46.607Z,24.77
2018-12-25T02:34:17.543Z,24.67
2018-12-25T02:36:48.639Z,28.07
2018-12-25T02:39:19.653Z,30.67
2018-12-25T02:41:50.692Z,32.77
2018-12-25T02:44:21.619Z,24.53
2018-12-25T02:46:52.569Z,25.60
2018-12-25T02:49:23.664Z,26.17
2018-12-25T02:51:54.745Z,25.03
2018-12-25T02:54:26.813Z,26.43
2018-12-25T02:56:57.889Z,29.37
2018-12-25T02:59:28.880Z,28.07
2018-12-25T03:01:59.826Z,24.20
2018-12-25T03:04:30.767Z,25.80
2018-12-25T03:07:01.700Z,24.20
2018-12-25T03:09:32.645Z,27.13
2018-12-25T03:12:03.645Z,23.83
2018-12-25T03:14:34.568Z,23.97
2018-12-25T03:17:05.550Z,22.17
2018-12-25T03:19:36.462Z,23.43
2018-12-25T03:22:11.122Z,26.13
2018-12-25T03:24:43.125Z,25.40
2018-12-25T03:27:14.099Z,23.97
2018-12-25T03:29:45.012Z,21.63
2018-12-25T03:32:15.941Z,20.20
2018-12-25T03:34:46.969Z,20.03
2018-12-25T03:37:17.892Z,22.60
2018-12-25T03:39:48.820Z,20.60
2018-12-25T03:42:21.596Z,22.43
2018-12-25T03:44:52.520Z,25.57
2018-12-25T03:47:23.492Z,26.27
2018-12-25T03:49:54.406Z,25.90
2018-12-25T03:52:25.337Z,25.73
2018-12-25T03:54:56.321Z,21.77
2018-12-25T03:57:27.245Z,25.97
2018-12-25T03:59:58.198Z,19.43
2018-12-25T04:02:29.109Z,26.23
2018-12-25T04:05:00.044Z,22.33
2018-12-25T04:07:30.963Z,18.40
2018-12-25T04:10:01.894Z,18.47
2018-12-25T04:12:32.873Z,20.97
2018-12-25T04:15:03.776Z,15.40
2018-12-25T04:17:34.684Z,17.17
2018-12-25T04:20:05.987Z,17.50
2018-12-25T04:22:36.939Z,14.57
2018-12-25T04:25:08.933Z,21.47
2018-12-25T04:27:39.846Z,16.33
2018-12-25T04:30:10.835Z,16.03
2018-12-25T04:32:41.763Z,15.17
2018-12-25T04:35:12.675Z,13.53
2018-12-25T04:37:43.716Z,20.80
2018-12-25T04:40:14.601Z,15.10
2018-12-25T04:42:45.567Z,14.23
2018-12-25T04:45:16.494Z,16.03
2018-12-25T04:47:47.434Z,14.60
2018-12-25T04:50:18.344Z,14.87
2018-12-25T04:52:49.256Z,15.87
2018-12-25T04:55:20.239Z,14.63
2018-12-25T04:57:51.145Z,15.10
2018-12-25T05:00:22.109Z,15.93
2018-12-25T05:02:53.035Z,12.33
2018-12-25T05:05:23.953Z,20.27
2018-12-25T05:07:54.876Z,18.63
2018-12-25T05:10:25.904Z,15.43
2018-12-25T05:12:56.795Z,16.83
2018-12-25T05:15:27.749Z,17.57
2018-12-25T05:17:58.670Z,16.20
2018-12-25T05:20:37.701Z,15.63
2018-12-25T05:23:02.238Z,19.67
2018-12-25T05:25:33.241Z,15.80
2018-12-25T05:28:04.149Z,13.83
2018-12-25T05:30:35.100Z,15.07
2018-12-25T05:33:06.079Z,15.37
2018-12-25T05:35:37.043Z,14.37
2018-12-25T05:38:08.008Z,20.27
2018-12-25T05:40:39.041Z,18.60
2018-12-25T05:43:09.967Z,16.63
2018-12-25T05:45:40.879Z,14.23
2018-12-25T05:48:11.793Z,18.00
2018-12-25T05:50:46.784Z,16.97
2018-12-25T05:53:15.369Z,19.07
2018-12-25T05:55:46.289Z,18.60
2018-12-25T05:58:17.227Z,21.83
2018-12-25T06:00:48.276Z,26.90
2018-12-25T06:03:19.180Z,18.87
2018-12-25T06:05:50.188Z,22.90
2018-12-25T06:08:21.101Z,18.83
2018-12-25T06:10:52.030Z,24.13
2018-12-25T06:13:23.008Z,17.33
2018-12-25T06:15:53.919Z,14.97
2018-12-25T06:18:24.842Z,21.37
2018-12-25T06:20:55.759Z,22.07
2018-12-25T06:23:26.684Z,17.43
2018-12-25T06:25:57.659Z,17.67
2018-12-25T06:28:28.578Z,22.60
2018-12-25T06:30:59.603Z,19.03
2018-12-25T06:33:30.559Z,18.80
2018-12-25T06:36:02.612Z,19.20
2018-12-25T06:38:33.524Z,18.03
2018-12-25T06:41:04.513Z,18.50
2018-12-25T06:43:35.548Z,24.43
2018-12-25T06:46:07.587Z,22.67
2018-12-25T06:48:38.502Z,29.63
2018-12-25T06:51:10.406Z,20.57
2018-12-25T06:53:41.372Z,23.83
2018-12-25T06:56:12.311Z,21.30
2018-12-25T06:58:43.254Z,20.10
2018-12-25T07:01:14.200Z,26.63
2018-12-25T07:03:45.141Z,25.40
2018-12-25T07:06:16.160Z,23.50
2018-12-25T07:08:47.098Z,23.93
2018-12-25T07:11:18.059Z,25.80
2018-12-25T07:13:49.015Z,30.03
2018-12-25T07:16:19.972Z,28.73
2018-12-25T07:18:50.892Z,28.03
2018-12-25T07:21:21.869Z,27.77
2018-12-25T07:23:52.860Z,23.47
2018-12-25T07:26:23.768Z,25.90
2018-12-25T07:28:54.735Z,21.77
2018-12-25T07:31:26.893Z,20.53
2018-12-25T07:33:57.881Z,23.50
2018-12-25T07:36:28.831Z,29.83
2018-12-25T07:38:59.744Z,25.57
2018-12-25T07:41:33.056Z,27.50
2018-12-25T07:44:04.880Z,31.87
2018-12-25T07:46:39.181Z,29.13
2018-12-25T07:49:19.797Z,26.43
2018-12-25T07:52:16.058Z,22.47
2018-12-25T07:54:52.757Z,22.90
2018-12-25T07:57:23.827Z,24.97
2018-12-25T07:59:54.757Z,20.50
2018-12-25T08:02:25.692Z,22.67
2018-12-25T08:04:58.302Z,25.80
2018-12-25T08:07:29.266Z,23.37
2018-12-25T08:10:13.053Z,26.63
2018-12-25T08:12:44.071Z,19.10
2018-12-25T08:15:15.025Z,20.03
2018-12-25T08:17:46.586Z,26.50
2018-12-25T08:20:20.115Z,26.90
2018-12-25T08:22:51.069Z,31.40
2018-12-25T08:25:22.077Z,21.30
2018-12-25T08:27:53.196Z,16.97
2018-12-25T08:30:24.364Z,16.93
2018-12-25T08:32:55.377Z,23.63
2018-12-25T08:35:26.368Z,120.07
2018-12-25T08:37:57.420Z,61.30
2018-12-25T08:40:28.519Z,73.43
2018-12-25T08:42:59.437Z,23.10
2018-12-25T08:45:30.409Z,27.00
2018-12-25T08:48:01.620Z,26.40
2018-12-25T08:50:33.114Z,28.53
2018-12-25T08:53:04.024Z,23.77
2018-12-25T08:55:37.307Z,26.60
2018-12-25T08:58:08.310Z,22.57
2018-12-25T09:00:39.544Z,23.63
2018-12-25T09:03:10.576Z,21.63
2018-12-25T09:05:41.580Z,27.67
2018-12-25T09:08:12.915Z,25.13
2018-12-25T09:10:44.138Z,19.10
2018-12-25T09:13:15.130Z,21.07
2018-12-25T09:15:46.089Z,16.33
2018-12-25T09:18:17.017Z,20.10
2018-12-25T09:20:50.259Z,22.50
2018-12-25T09:23:21.193Z,25.07
2018-12-25T09:25:52.213Z,19.47
2018-12-25T09:28:23.852Z,18.80
2018-12-25T09:30:55.224Z,18.67
2018-12-25T09:33:30.068Z,13.37
2018-12-25T09:36:00.996Z,17.53
2018-12-25T09:38:32.339Z,20.10
2018-12-25T09:41:03.795Z,16.17
2018-12-25T09:43:34.920Z,18.00
2018-12-25T09:46:06.280Z,15.93
2018-12-25T09:48:37.338Z,22.87
2018-12-25T09:51:08.373Z,20.83
2018-12-25T09:53:39.398Z,21.90
2018-12-25T09:56:10.448Z,25.93
2018-12-25T09:58:41.386Z,20.27
2018-12-25T10:01:12.413Z,21.20
2018-12-25T10:03:43.338Z,17.70
2018-12-25T10:06:14.280Z,23.80
2018-12-25T10:08:45.279Z,18.53
2018-12-25T10:11:16.211Z,18.33
2018-12-25T10:13:47.145Z,13.53
2018-12-25T10:16:18.081Z,18.47
2018-12-25T10:18:49.047Z,15.30
2018-12-25T10:21:20.007Z,26.20
2018-12-25T10:23:50.954Z,16.07
2018-12-25T10:26:22.427Z,20.63
2018-12-25T10:28:57.406Z,19.97
2018-12-25T10:31:29.929Z,10.27
2018-12-25T10:34:01.179Z,13.17
2018-12-25T10:36:32.195Z,15.23
2018-12-25T10:39:04.639Z,15.27
2018-12-25T10:41:35.822Z,15.30
2018-12-25T10:44:06.821Z,13.20
2018-12-25T10:46:37.981Z,20.47
2018-12-25T10:49:09.061Z,16.60
2018-12-25T10:51:40.010Z,16.60
2018-12-25T10:54:11.000Z,17.93
2018-12-25T10:56:42.986Z,16.10
2018-12-25T10:59:14.050Z,16.47
2018-12-25T11:01:45.027Z,14.57
2018-12-25T11:04:16.212Z,14.03
2018-12-25T11:06:47.533Z,14.40
2018-12-25T11:09:18.775Z,14.80
2018-12-25T11:11:49.787Z,22.43
2018-12-25T11:14:21.087Z,18.60
2018-12-25T11:16:52.137Z,21.97
2018-12-25T11:19:24.549Z,14.07
2018-12-25T11:21:55.701Z,14.47
2018-12-25T11:24:26.969Z,14.50
2018-12-25T11:26:57.961Z,11.37
2018-12-25T11:29:28.975Z,15.30
2018-12-25T11:32:00.833Z,11.77
2018-12-25T11:34:31.917Z,13.37
2018-12-25T11:37:02.945Z,12.83
2018-12-25T11:39:33.887Z,13.93
2018-12-25T11:42:05.079Z,12.27
2018-12-25T11:44:36.600Z,17.70
2018-12-25T11:47:08.754Z,15.30
2018-12-25T11:49:39.735Z,12.93
2018-12-25T11:52:10.698Z,16.77
2018-12-25T11:54:41.981Z,13.80
2018-12-25T11:57:13.501Z,14.97
2018-12-25T11:59:44.445Z,19.60
2018-12-25T12:02:17.225Z,22.57
2018-12-25T12:04:48.147Z,19.87
2018-12-25T12:07:19.339Z,26.93
2018-12-25T12:09:50.269Z,18.57
2018-12-25T12:12:21.306Z,13.93
2018-12-25T12:14:52.236Z,19.70
2018-12-25T12:17:23.210Z,20.00
2018-12-25T12:19:55.789Z,19.43
2018-12-25T12:26:06.633Z,14.97
2018-12-25T12:28:37.688Z,15.40
2018-12-25T12:31:08.782Z,14.97
2018-12-25T12:33:39.759Z,15.47
2018-12-25T12:36:10.733Z,12.17
2018-12-25T12:38:41.713Z,16.27
2018-12-25T12:41:12.690Z,13.30
2018-12-25T12:43:43.668Z,14.10
2018-12-25T12:46:14.635Z,15.27
2018-12-25T12:49:45.341Z,13.87
2018-12-25T12:57:03.048Z,16.50
2018-12-25T12:59:47.768Z,16.63
2018-12-25T13:02:20.082Z,15.83
2018-12-25T13:04:51.005Z,13.30
2018-12-25T13:07:21.966Z,13.43
2018-12-25T13:09:52.991Z,13.40
2018-12-25T13:12:24.019Z,13.17
2018-12-25T13:14:54.989Z,12.47
2018-12-25T13:17:25.971Z,18.03
2018-12-25T13:19:56.885Z,11.90
2018-12-25T13:22:27.868Z,14.73
2018-12-25T13:24:58.793Z,13.20
2018-12-25T13:27:29.718Z,15.83
2018-12-25T13:30:00.664Z,13.43
2018-12-25T13:32:31.656Z,15.63
2018-12-25T13:35:02.618Z,12.00
2018-12-25T13:37:33.536Z,11.80
2018-12-25T13:40:04.766Z,14.33
2018-12-25T13:42:35.744Z,11.50
2018-12-25T13:45:06.761Z,10.80
2018-12-25T13:47:37.718Z,13.93
2018-12-25T13:50:09.641Z,12.83
2018-12-25T13:52:41.640Z,11.83
2018-12-25T13:55:12.563Z,10.43
2018-12-25T13:57:43.489Z,18.63
2018-12-25T14:00:14.434Z,10.00
2018-12-25T14:02:45.373Z,10.43
2018-12-25T14:05:16.706Z,9.67
2018-12-25T14:07:47.655Z,9.33
2018-12-25T14:10:18.598Z,10.23
2018-12-25T14:12:49.582Z,9.07
2018-12-25T14:15:20.579Z,9.63
2018-12-25T14:17:51.599Z,9.77
2018-12-25T14:20:22.533Z,8.83
2018-12-25T14:22:53.630Z,9.53
2018-12-25T14:25:24.576Z,10.10
2018-12-25T14:27:55.563Z,9.60
2018-12-25T14:30:26.483Z,8.90
2018-12-25T14:32:57.464Z,9.47
2018-12-25T14:35:28.510Z,8.80
2018-12-25T14:37:59.523Z,12.47
2018-12-25T14:40:30.524Z,8.20
2018-12-25T14:43:01.572Z,13.40
2018-12-25T14:45:34.083Z,8.30
2018-12-25T14:48:05.054Z,15.37
2018-12-25T14:50:35.977Z,13.27
2018-12-25T14:53:06.923Z,9.23
2018-12-25T14:55:37.975Z,10.03
2018-12-25T14:58:08.953Z,10.07
2018-12-25T15:00:39.978Z,11.43
2018-12-25T15:03:10.950Z,12.87
2018-12-25T15:05:41.877Z,9.27
2018-12-25T15:08:12.933Z,10.97
2018-12-25T15:10:44.036Z,12.77
2018-12-25T15:13:15.052Z,13.23
2018-12-25T15:15:46.012Z,10.67
2018-12-25T15:18:17.058Z,11.90
2018-12-25T15:20:48.149Z,17.43
2018-12-25T15:23:19.333Z,10.50
2018-12-25T15:25:50.294Z,12.07
2018-12-25T15:28:21.342Z,14.80
2018-12-25T15:30:52.358Z,20.83
2018-12-25T15:33:23.425Z,14.90
2018-12-25T15:35:54.382Z,14.23
2018-12-25T15:38:25.362Z,18.50
2018-12-25T15:40:57.396Z,13.73
2018-12-25T15:43:28.501Z,11.40
2018-12-25T15:45:59.516Z,13.03
2018-12-25T15:48:30.499Z,9.83
2018-12-25T15:51:01.546Z,12.07
2018-12-25T15:53:36.818Z,13.40
2018-12-25T15:56:05.248Z,12.07
2018-12-25T15:58:36.201Z,13.80
2018-12-25T16:01:07.197Z,9.20
2018-12-25T16:03:38.228Z,13.13
2018-12-25T16:06:09.155Z,12.00
2018-12-25T16:08:40.126Z,12.23
2018-12-25T16:11:11.201Z,8.33
2018-12-25T16:13:42.250Z,12.07
2018-12-25T16:16:15.787Z,9.73
2018-12-25T16:18:46.804Z,12.03
2018-12-25T16:21:17.752Z,10.43
2018-12-25T16:23:50.503Z,12.60
2018-12-25T16:26:21.506Z,12.33
2018-12-25T16:28:52.557Z,11.23
2018-12-25T16:31:23.704Z,8.10
2018-12-25T16:33:55.706Z,31.57
2018-12-25T16:36:26.716Z,10.67
2018-12-25T16:38:57.654Z,8.77
2018-12-25T16:41:28.723Z,11.33
2018-12-25T16:43:59.757Z,14.70
2018-12-25T16:46:30.793Z,10.50
2018-12-25T16:49:01.871Z,11.13
2018-12-25T16:51:35.126Z,13.47
2018-12-25T16:54:06.151Z,11.77
2018-12-25T16:56:37.136Z,11.67
2018-12-25T16:59:08.187Z,17.07
2018-12-25T17:01:39.301Z,12.43
2018-12-25T17:04:10.311Z,14.47
2018-12-25T17:06:41.330Z,16.43
2018-12-25T17:09:12.415Z,11.17
2018-12-25T17:11:43.498Z,11.47
2018-12-25T17:14:14.512Z,10.10
2018-12-25T17:16:45.564Z,17.83
2018-12-25T17:19:16.610Z,17.40
2018-12-25T17:21:47.579Z,16.43
2018-12-25T17:24:18.600Z,17.80
2018-12-25T17:26:49.649Z,15.80
2018-12-25T17:29:20.597Z,11.20
2018-12-25T17:31:51.557Z,15.97
2018-12-25T17:34:22.523Z,12.63
2018-12-25T17:36:53.502Z,19.50
2018-12-25T17:39:24.663Z,15.43
2018-12-25T17:41:55.570Z,18.53
2018-12-25T17:44:26.817Z,21.30
2018-12-25T17:46:57.913Z,24.77
2018-12-25T17:49:28.980Z,22.93
2018-12-25T17:51:59.948Z,20.90
2018-12-25T17:54:30.901Z,16.83
2018-12-25T18:00:43.756Z,14.00
2018-12-25T18:03:14.807Z,18.87
2018-12-25T18:05:45.776Z,18.97
2018-12-25T18:08:16.703Z,14.23
2018-12-25T18:10:47.640Z,16.50
2018-12-25T18:13:18.634Z,19.17
2018-12-25T18:15:49.552Z,17.63
2018-12-25T18:18:20.628Z,16.53
2018-12-25T18:20:51.559Z,21.23
2018-12-25T18:23:22.555Z,18.20
2018-12-25T18:25:53.488Z,19.17
2018-12-25T18:28:24.639Z,15.00
2018-12-25T18:30:55.709Z,14.57
2018-12-25T18:33:26.899Z,22.27
2018-12-25T18:35:57.919Z,15.43
2018-12-25T18:38:29.086Z,15.70
2018-12-25T18:40:59.967Z,17.93
2018-12-25T18:43:30.902Z,16.57
2018-12-25T18:46:01.826Z,19.80
2018-12-25T18:48:32.814Z,16.87
2018-12-25T18:51:03.807Z,14.83
2018-12-25T18:53:34.814Z,16.80
2018-12-25T18:56:05.794Z,20.33
2018-12-25T18:58:36.713Z,18.83
2018-12-25T19:01:07.710Z,17.07
2018-12-25T19:03:38.729Z,16.40
2018-12-25T19:06:09.735Z,14.00
2018-12-25T19:08:40.757Z,17.10
2018-12-25T19:11:11.682Z,18.67
2018-12-25T19:13:42.732Z,20.80
2018-12-25T19:16:13.668Z,23.00
2018-12-25T19:18:44.734Z,20.27
2018-12-25T19:21:15.654Z,20.93
2018-12-25T19:23:55.367Z,16.70
2018-12-25T19:26:26.381Z,20.37
2018-12-25T19:28:57.423Z,15.40
2018-12-25T19:31:28.483Z,16.90
2018-12-25T19:33:59.403Z,15.83
2018-12-25T19:36:30.345Z,14.07
2018-12-25T19:39:01.306Z,19.17
2018-12-25T19:41:33.894Z,23.63
2018-12-25T19:44:04.849Z,18.53
2018-12-25T19:46:35.896Z,22.10
2018-12-25T19:49:07.042Z,17.47
2018-12-25T19:51:37.975Z,16.73
2018-12-25T19:54:08.953Z,20.87
2018-12-25T19:56:39.993Z,18.43
2018-12-25T19:59:10.943Z,17.63
2018-12-25T20:01:41.872Z,31.43
2018-12-25T20:04:50.009Z,16.57
2018-12-25T20:07:58.064Z,17.30
2018-12-25T20:10:45.985Z,17.30
2018-12-25T20:14:16.369Z,19.30
2018-12-25T20:17:24.256Z,21.17
2018-12-25T20:20:44.527Z,22.77
2018-12-25T20:24:05.852Z,24.23
2018-12-25T20:27:25.787Z,21.40
2018-12-25T20:30:43.624Z,20.20
2018-12-25T20:33:30.467Z,14.17
2018-12-25T20:36:54.038Z,10.10
2018-12-25T20:40:07.689Z,14.23
2018-12-25T20:43:15.412Z,14.70
2018-12-25T20:46:13.835Z,14.97
2018-12-25T20:49:41.092Z,12.77
2018-12-25T20:52:57.628Z,18.10
2018-12-25T20:56:04.375Z,15.80
2018-12-25T20:58:56.472Z,19.77
2018-12-25T21:02:02.398Z,21.30
2018-12-25T21:05:22.594Z,20.77
2018-12-25T21:08:49.158Z,20.67
2018-12-25T21:11:59.935Z,26.00
2018-12-25T21:15:20.485Z,19.97
2018-12-25T21:18:46.620Z,20.87
2018-12-25T21:21:46.810Z,17.40
2018-12-25T21:24:53.716Z,21.23
2018-12-25T21:27:33.322Z,23.87
2018-12-25T21:30:11.147Z,22.33
2018-12-25T21:32:43.662Z,29.07
2018-12-25T21:35:25.340Z,20.73
2018-12-25T21:37:57.582Z,19.03
2018-12-25T21:40:28.640Z,21.13
2018-12-25T21:42:59.856Z,19.90
2018-12-25T21:45:30.906Z,23.00
2018-12-25T21:48:01.988Z,17.60
2018-12-25T21:50:32.958Z,25.73
2018-12-25T21:53:04.165Z,23.33
2018-12-25T21:55:35.434Z,18.90
2018-12-25T21:58:06.653Z,23.53
2018-12-25T22:00:37.635Z,29.17
2018-12-25T22:03:08.650Z,27.13
2018-12-25T22:05:39.647Z,22.10
2018-12-25T22:08:10.679Z,25.27
2018-12-25T22:10:41.893Z,29.93
2018-12-25T22:13:12.901Z,19.73
2018-12-25T22:15:43.959Z,17.70
2018-12-25T22:18:14.976Z,15.73
2018-12-25T22:20:46.162Z,17.60
2018-12-25T22:23:17.230Z,21.20
2018-12-25T22:25:49.024Z,21.57
2018-12-25T22:28:20.141Z,20.73
2018-12-25T22:30:52.474Z,19.77
2018-12-25T22:33:25.677Z,24.23
2018-12-25T22:35:56.954Z,21.97
2018-12-25T22:38:31.486Z,16.43
2018-12-25T22:41:05.643Z,17.37
2018-12-25T22:43:39.940Z,18.97
2018-12-25T22:46:11.039Z,13.53
2018-12-25T22:49:26.907Z,15.50
2018-12-25T22:51:58.519Z,16.20
2018-12-25T22:54:29.632Z,19.97
2018-12-25T22:57:03.770Z,15.93
2018-12-25T22:59:34.902Z,16.53
2018-12-25T23:02:06.012Z,20.20
2018-12-25T23:04:37.160Z,16.33
2018-12-25T23:07:08.440Z,21.20
2018-12-25T23:09:39.552Z,22.10
2018-12-25T23:12:13.758Z,18.60
2018-12-25T23:14:46.440Z,19.73
2018-12-25T23:17:17.489Z,17.73
2018-12-25T23:19:48.458Z,18.17
2018-12-25T23:22:19.440Z,17.00
2018-12-25T23:24:50.371Z,27.50
2018-12-25T23:27:21.350Z,19.93
2018-12-25T23:29:52.378Z,17.33
2018-12-25T23:32:32.763Z,19.30
2018-12-25T23:35:03.798Z,22.57
2018-12-25T23:37:34.811Z,19.83
2018-12-25T23:40:06.101Z,15.53
2018-12-25T23:42:37.202Z,15.97
2018-12-25T23:45:08.163Z,12.77
2018-12-25T23:47:39.216Z,13.13
2018-12-25T23:50:10.156Z,18.83
2018-12-25T23:52:41.158Z,19.17
2018-12-25T23:55:12.091Z,18.00
2018-12-25T23:57:43.063Z,12.93
